createdAt,value
2023-01-09T00:01:26.816Z,7.21
2023-01-09T00:03:28.033Z,7.2
2023-01-09T00:05:29.252Z,7.22
2023-01-09T00:07:30.970Z,7.22
2023-01-09T00:09:32.346Z,7.19
2023-01-09T00:11:33.997Z,7.19
2023-01-09T00:13:35.435Z,7.27
2023-01-09T00:15:36.391Z,7.26
2023-01-09T00:17:38.134Z,7.28
2023-01-09T00:19:39.664Z,7.25
2023-01-09T00:21:41.028Z,7.25
2023-01-09T00:23:42.399Z,7.28
2023-01-09T00:25:44.231Z,7.26
2023-01-09T00:27:45.580Z,7.25
2023-01-09T00:29:46.917Z,7.18
2023-01-09T00:31:48.588Z,7.18
2023-01-09T00:33:50.459Z,7.17
2023-01-09T00:35:52.303Z,7.2
2023-01-09T00:37:54.069Z,7.19
2023-01-09T00:39:55.205Z,7.18
2023-01-09T00:41:56.327Z,7.15
2023-01-09T00:43:57.429Z,7.24
2023-01-09T00:45:58.655Z,7.24
2023-01-09T00:48:00.012Z,7.27
2023-01-09T00:50:01.476Z,7.24
2023-01-09T00:52:03.015Z,7.25
2023-01-09T00:54:04.867Z,7.27
2023-01-09T00:56:05.899Z,7.27
2023-01-09T00:58:07.741Z,7.25
2023-01-09T01:00:09.625Z,7.21
2023-01-09T01:02:11.455Z,7.21
2023-01-09T01:04:12.988Z,7.2
2023-01-09T01:06:14.752Z,7.13
2023-01-09T01:08:15.943Z,7.13
2023-01-09T01:10:17.701Z,7.12
2023-01-09T01:12:19.364Z,7.11
2023-01-09T01:14:21.216Z,7.07
2023-01-09T01:16:22.972Z,7.11
2023-01-09T01:18:24.008Z,7.09
2023-01-09T01:20:25.391Z,7.07
2023-01-09T01:22:26.619Z,7.11
2023-01-09T01:24:27.618Z,7.08
2023-01-09T01:26:29.276Z,7.09
2023-01-09T01:28:30.568Z,7.1
2023-01-09T01:30:32.505Z,7.17
2023-01-09T01:32:33.851Z,7.16
2023-01-09T01:34:35.366Z,7.16
2023-01-09T01:36:36.789Z,7.19
2023-01-09T01:38:38.724Z,7.2
2023-01-09T01:40:39.779Z,7.24
2023-01-09T01:42:41.185Z,7.27
2023-01-09T01:46:44.584Z,7.2
2023-01-09T01:48:46.387Z,7.27
2023-01-09T01:50:48.264Z,7.28
2023-01-09T01:52:49.463Z,7.28
2023-01-09T01:54:50.572Z,7.3
2023-01-09T01:56:51.786Z,7.3
2023-01-09T01:58:52.978Z,7.3
2023-01-09T02:00:54.797Z,7.31
2023-01-09T02:02:56.256Z,7.32
2023-01-09T02:04:57.427Z,7.35
2023-01-09T02:06:58.676Z,7.38
2023-01-09T02:09:00.377Z,7.44
2023-01-09T02:11:01.387Z,7.45
2023-01-09T02:13:02.761Z,7.45
2023-01-09T02:15:04.458Z,7.43
2023-01-09T02:17:05.834Z,7.38
2023-01-09T02:19:07.024Z,7.39
2023-01-09T02:21:08.572Z,7.48
2023-01-09T02:23:10.397Z,7.47
2023-01-09T02:25:12.294Z,7.41
2023-01-09T02:27:13.718Z,7.43
2023-01-09T02:29:15.518Z,7.39
2023-01-09T02:31:16.740Z,7.43
2023-01-09T02:33:18.274Z,7.54
2023-01-09T02:35:19.763Z,7.57
2023-01-09T02:37:20.989Z,7.51
2023-01-09T02:39:22.548Z,7.47
2023-01-09T02:41:23.915Z,7.47
2023-01-09T02:43:25.820Z,7.49
2023-01-09T02:45:27.788Z,7.5
2023-01-09T02:47:29.363Z,7.54
2023-01-09T02:49:30.751Z,7.51
2023-01-09T02:51:31.982Z,7.5
2023-01-09T02:53:33.275Z,7.51
2023-01-09T02:55:34.623Z,7.5
2023-01-09T02:57:36.333Z,7.54
2023-01-09T02:59:37.363Z,7.57
2023-01-09T03:01:38.642Z,7.55
2023-01-09T03:03:40.227Z,7.56
2023-01-09T03:05:41.525Z,7.53
2023-01-09T03:07:43.439Z,7.49
2023-01-09T03:09:44.622Z,7.51
2023-01-09T03:11:45.976Z,7.54
2023-01-09T03:13:46.967Z,7.58
2023-01-09T03:15:48.576Z,7.6
2023-01-09T03:17:50.216Z,7.69
2023-01-09T03:19:51.800Z,7.74
2023-01-09T03:21:53.220Z,7.72
2023-01-09T03:23:54.608Z,7.72
2023-01-09T03:25:56.081Z,7.68
2023-01-09T03:27:58.049Z,7.73
2023-01-09T03:29:59.330Z,7.73
2023-01-09T03:32:00.733Z,7.77
2023-01-09T03:34:02.322Z,7.9
2023-01-09T03:36:03.356Z,7.89
2023-01-09T03:38:06.644Z,7.86
2023-01-09T03:40:06.192Z,7.87
2023-01-09T03:42:08.026Z,7.89
2023-01-09T03:44:09.257Z,7.92
2023-01-09T03:46:11.181Z,8.01
2023-01-09T03:48:12.517Z,7.96
2023-01-09T03:50:14.045Z,7.99
2023-01-09T03:52:15.164Z,7.96
2023-01-09T03:54:16.617Z,8.03
2023-01-09T03:56:17.827Z,8.01
2023-01-09T03:58:19.330Z,7.94
2023-01-09T04:00:20.477Z,7.92
2023-01-09T04:02:22.252Z,7.89
2023-01-09T04:04:23.576Z,7.94
2023-01-09T04:06:24.659Z,7.9
2023-01-09T04:08:26.122Z,7.92
2023-01-09T04:10:27.774Z,8.07
2023-01-09T04:12:29.408Z,8.03
2023-01-09T04:14:30.928Z,7.94
2023-01-09T04:16:32.209Z,8.06
2023-01-09T04:18:33.207Z,8.08
2023-01-09T04:20:34.685Z,8.03
2023-01-09T04:22:36.118Z,8.07
2023-01-09T04:24:37.557Z,8
2023-01-09T04:26:38.838Z,7.94
2023-01-09T04:28:40.618Z,7.98
2023-01-09T04:30:42.000Z,8.01
2023-01-09T04:32:43.195Z,8.04
2023-01-09T04:34:44.600Z,8.01
2023-01-09T04:36:45.863Z,7.94
2023-01-09T04:38:46.998Z,7.86
2023-01-09T04:40:48.886Z,7.77
2023-01-09T04:42:50.491Z,7.72
2023-01-09T04:44:51.962Z,7.66
2023-01-09T04:46:53.083Z,7.61
2023-01-09T04:48:54.482Z,7.57
2023-01-09T04:52:57.067Z,7.44
2023-01-09T04:54:58.853Z,7.36
2023-01-09T04:57:00.056Z,7.42
2023-01-09T04:59:01.652Z,7.37
2023-01-09T05:01:03.605Z,7.36
2023-01-09T05:03:05.187Z,7.34
2023-01-09T05:05:07.395Z,7.3
2023-01-09T05:07:08.721Z,7.32
2023-01-09T05:09:10.490Z,7.3
2023-01-09T05:11:12.337Z,7.3
2023-01-09T05:13:13.641Z,7.33
2023-01-09T05:15:15.407Z,7.25
2023-01-09T05:17:17.010Z,7.2
2023-01-09T05:19:18.986Z,7.19
2023-01-09T05:21:19.971Z,7.15
2023-01-09T05:23:21.025Z,7.08
2023-01-09T05:24:04.859Z,7.05
2023-01-09T05:26:06.076Z,7.1
2023-01-09T05:30:09.364Z,7.07
2023-01-09T05:32:11.055Z,6.99
2023-01-09T05:34:12.756Z,6.94
2023-01-09T05:36:13.928Z,6.96
2023-01-09T05:38:15.741Z,6.97
2023-01-09T05:40:16.917Z,6.92
2023-01-09T05:42:17.910Z,6.91
2023-01-09T05:44:19.069Z,6.88
2023-01-09T05:46:20.922Z,6.87
2023-01-09T05:48:22.624Z,6.83
2023-01-09T05:50:23.944Z,6.8
2023-01-09T05:52:24.893Z,6.78
2023-01-09T05:54:26.687Z,6.78
2023-01-09T05:56:28.487Z,6.78
2023-01-09T05:58:30.231Z,6.76
2023-01-09T06:00:32.119Z,6.78
2023-01-09T06:02:34.094Z,6.8
2023-01-09T06:04:35.373Z,6.76
2023-01-09T06:06:36.944Z,6.71
2023-01-09T06:08:38.145Z,6.76
2023-01-09T06:10:39.919Z,6.75
2023-01-09T06:12:41.228Z,6.76
2023-01-09T06:14:42.327Z,6.78
2023-01-09T06:16:43.791Z,6.8
2023-01-09T06:18:45.344Z,6.75
2023-01-09T06:20:47.212Z,6.75
2023-01-09T06:22:48.788Z,6.72
2023-01-09T06:24:49.940Z,6.77
2023-01-09T06:26:50.927Z,6.62
2023-01-09T06:28:51.951Z,6.59
2023-01-09T06:30:53.468Z,6.52
2023-01-09T06:32:54.422Z,6.56
2023-01-09T06:34:55.905Z,6.56
2023-01-09T06:36:57.643Z,6.51
2023-01-09T06:38:58.970Z,6.55
2023-01-09T06:41:00.593Z,6.56
2023-01-09T06:43:02.240Z,6.56
2023-01-09T06:45:03.696Z,6.5
2023-01-09T06:47:05.103Z,6.52
2023-01-09T06:49:07.876Z,6.49
2023-01-09T06:51:08.706Z,6.5
2023-01-09T06:53:10.309Z,6.42
2023-01-09T06:55:11.779Z,6.44
2023-01-09T06:57:13.396Z,6.4
2023-01-09T06:59:15.343Z,6.37
2023-01-09T07:01:16.757Z,6.41
2023-01-09T07:03:18.343Z,6.39
2023-01-09T07:05:20.272Z,6.4
2023-01-09T07:07:21.509Z,6.38
2023-01-09T07:09:22.603Z,6.33
2023-01-09T07:11:24.222Z,6.28
2023-01-09T07:13:26.152Z,6.25
2023-01-09T07:15:27.418Z,6.19
2023-01-09T07:17:28.533Z,6.1
2023-01-09T07:19:29.788Z,6.04
2023-01-09T07:21:32.819Z,5.97
2023-01-09T07:23:33.365Z,5.97
2023-01-09T07:25:34.562Z,5.92
2023-01-09T07:27:36.246Z,5.95
2023-01-09T07:29:38.143Z,5.96
2023-01-09T07:31:39.211Z,6
2023-01-09T07:33:40.274Z,6.05
2023-01-09T07:35:41.706Z,6.02
2023-01-09T07:37:42.999Z,6.03
2023-01-09T07:39:44.734Z,6.06
2023-01-09T07:41:46.272Z,6.05
2023-01-09T07:43:47.460Z,6.04
2023-01-09T07:45:48.750Z,6.12
2023-01-09T07:47:50.546Z,6.04
2023-01-09T07:49:52.480Z,5.99
2023-01-09T07:51:54.045Z,6.09
2023-01-09T07:53:55.650Z,6.13
2023-01-09T07:55:57.217Z,6.11
2023-01-09T07:57:58.278Z,6.04
2023-01-09T07:59:59.739Z,6.03
2023-01-09T08:02:01.578Z,6.03
2023-01-09T08:04:03.069Z,6.04
2023-01-09T08:06:04.658Z,6.01
2023-01-09T08:08:05.836Z,5.97
2023-01-09T08:10:06.948Z,6
2023-01-09T08:12:08.345Z,6.07
2023-01-09T08:14:09.553Z,6.09
2023-01-09T08:16:10.554Z,6.08
2023-01-09T08:18:11.989Z,6.09
2023-01-09T08:20:13.572Z,6.02
2023-01-09T08:22:14.722Z,6.05
2023-01-09T08:24:16.386Z,6.04
2023-01-09T08:26:17.428Z,6.05
2023-01-09T08:28:18.451Z,6.01
2023-01-09T08:30:20.133Z,5.97
2023-01-09T08:32:21.291Z,6
2023-01-09T08:36:24.505Z,6.09
2023-01-09T08:38:26.354Z,6.13
2023-01-09T08:40:28.103Z,6.09
2023-01-09T08:42:29.618Z,6.14
2023-01-09T08:44:30.901Z,6.15
2023-01-09T08:46:34.719Z,6.1
2023-01-09T08:48:34.236Z,6.08
2023-01-09T08:50:35.488Z,6.11
2023-01-09T08:52:37.434Z,6.13
2023-01-09T08:54:38.833Z,6.2
2023-01-09T08:56:40.168Z,6.23
2023-01-09T08:58:41.476Z,6.21
2023-01-09T09:00:42.971Z,6.26
2023-01-09T09:02:44.414Z,6.28
2023-01-09T09:04:46.090Z,6.37
2023-01-09T09:06:47.566Z,6.37
2023-01-09T09:08:48.605Z,6.38
2023-01-09T09:10:50.023Z,6.43
2023-01-09T09:12:51.064Z,6.47
2023-01-09T09:14:52.563Z,6.54
2023-01-09T09:16:54.254Z,6.55
2023-01-09T09:18:55.774Z,6.67
2023-01-09T09:20:57.147Z,6.62
2023-01-09T09:22:58.701Z,6.55
2023-01-09T09:25:00.358Z,6.59
2023-01-09T09:27:02.185Z,6.65
2023-01-09T09:29:04.103Z,6.74
2023-01-09T09:31:05.646Z,6.83
2023-01-09T09:33:07.475Z,6.81
2023-01-09T09:35:08.449Z,6.83
2023-01-09T09:37:09.864Z,6.89
2023-01-09T09:39:11.121Z,6.92
2023-01-09T09:41:12.068Z,6.91
2023-01-09T09:43:13.053Z,6.91
2023-01-09T09:45:14.335Z,6.93
2023-01-09T09:47:15.952Z,6.94
2023-01-09T09:49:17.185Z,6.9
2023-01-09T09:51:18.171Z,6.92
2023-01-09T09:53:19.222Z,6.93
2023-01-09T09:55:20.748Z,6.9
2023-01-09T09:57:22.603Z,6.91
2023-01-09T09:59:26.716Z,6.92
2023-01-09T10:01:25.355Z,6.92
2023-01-09T10:03:33.825Z,6.95
2023-01-09T10:05:28.271Z,6.97
2023-01-09T10:07:29.745Z,7.03
2023-01-09T10:09:30.927Z,7
2023-01-09T10:11:32.517Z,7.03
2023-01-09T10:13:33.715Z,7.07
2023-01-09T10:15:37.148Z,7.1
2023-01-09T10:17:37.274Z,7.08
2023-01-09T10:19:38.452Z,7.11
2023-01-09T10:21:40.082Z,7.11
2023-01-09T10:23:41.603Z,7.03
2023-01-09T10:25:42.951Z,7.06
2023-01-09T10:27:44.882Z,7.03
2023-01-09T10:29:46.714Z,7.02
2023-01-09T10:31:48.465Z,7.09
2023-01-09T10:33:50.035Z,7.19
2023-01-09T10:35:51.742Z,7.23
2023-01-09T10:37:52.859Z,7.25
2023-01-09T10:39:54.325Z,7.39
2023-01-09T10:41:55.623Z,7.45
2023-01-09T10:43:56.345Z,7.51
2023-01-09T10:45:58.126Z,7.39
2023-01-09T10:47:59.327Z,7.43
2023-01-09T10:50:01.042Z,7.5
2023-01-09T10:52:02.229Z,7.42
2023-01-09T10:54:03.414Z,7.46
2023-01-09T10:56:05.247Z,7.4
2023-01-09T10:58:07.160Z,7.37
2023-01-09T11:00:08.451Z,7.42
2023-01-09T11:02:09.908Z,7.44
2023-01-09T11:04:11.553Z,7.53
2023-01-09T11:06:12.491Z,7.46
2023-01-09T11:08:13.807Z,7.5
2023-01-09T11:10:15.252Z,7.56
2023-01-09T11:12:17.053Z,7.56
2023-01-09T11:14:18.279Z,7.67
2023-01-09T11:16:19.623Z,7.69
2023-01-09T11:18:21.303Z,7.61
2023-01-09T11:20:22.721Z,7.56
2023-01-09T11:22:24.150Z,7.57
2023-01-09T11:24:25.775Z,7.56
2023-01-09T11:26:27.402Z,7.6
2023-01-09T11:28:28.915Z,7.58
2023-01-09T11:30:29.877Z,7.53
2023-01-09T11:32:31.366Z,7.58
2023-01-09T11:34:33.151Z,7.63
2023-01-09T11:36:34.353Z,7.66
2023-01-09T11:38:35.260Z,7.7
2023-01-09T11:40:36.615Z,7.76
2023-01-09T11:42:38.279Z,7.71
2023-01-09T11:44:39.385Z,7.73
2023-01-09T11:46:40.985Z,7.86
2023-01-09T11:48:42.820Z,7.92
2023-01-09T11:50:44.399Z,7.92
2023-01-09T11:52:45.753Z,7.89
2023-01-09T11:54:46.883Z,7.86
2023-01-09T11:56:48.420Z,7.9
2023-01-09T11:58:50.168Z,7.9
2023-01-09T12:00:51.859Z,7.89
2023-01-09T12:02:53.852Z,7.94
2023-01-09T12:04:55.224Z,7.9
2023-01-09T12:06:56.762Z,7.82
2023-01-09T12:08:57.873Z,7.82
2023-01-09T12:09:41.661Z,7.81
2023-01-09T12:11:43.617Z,7.77
2023-01-09T12:13:45.097Z,7.81
2023-01-09T12:15:46.452Z,7.77
2023-01-09T12:17:47.766Z,7.75
2023-01-09T12:19:48.765Z,7.76
2023-01-09T12:21:50.281Z,7.71
2023-01-09T12:23:51.871Z,7.73
2023-01-09T12:25:53.212Z,7.73
2023-01-09T12:27:54.174Z,7.65
2023-01-09T12:29:55.306Z,7.67
2023-01-09T12:31:56.887Z,7.56
2023-01-09T12:33:57.877Z,7.56
2023-01-09T12:35:59.321Z,7.5
2023-01-09T12:38:00.471Z,7.58
2023-01-09T12:40:01.644Z,7.55
2023-01-09T12:42:03.449Z,7.56
2023-01-09T12:44:04.938Z,7.49
2023-01-09T12:46:06.722Z,7.47
2023-01-09T12:48:07.986Z,7.51
2023-01-09T12:50:09.574Z,7.49
2023-01-09T12:52:10.751Z,7.48
2023-01-09T12:54:12.093Z,7.49
2023-01-09T12:56:13.843Z,7.49
2023-01-09T12:58:15.239Z,7.46
2023-01-09T13:00:17.108Z,7.54
2023-01-09T13:02:18.371Z,7.56
2023-01-09T13:04:19.477Z,7.67
2023-01-09T13:06:20.481Z,7.67
2023-01-09T13:08:22.177Z,7.63
2023-01-09T13:10:23.510Z,7.66
2023-01-09T13:12:24.752Z,7.59
2023-01-09T13:14:26.289Z,7.58
2023-01-09T13:16:27.974Z,7.57
2023-01-09T13:18:29.353Z,7.5
2023-01-09T13:20:31.025Z,7.34
2023-01-09T13:22:32.924Z,7.26
2023-01-09T13:24:34.218Z,7.22
2023-01-09T13:26:35.280Z,7.11
2023-01-09T13:28:37.027Z,7.08
2023-01-09T13:30:38.465Z,7.04
2023-01-09T13:32:40.333Z,7.08
2023-01-09T13:34:41.563Z,7.07
2023-01-09T13:36:43.126Z,7.11
2023-01-09T13:38:44.863Z,7.14
2023-01-09T13:40:46.170Z,7.15
2023-01-09T13:42:47.366Z,7.06
2023-01-09T13:44:48.816Z,6.98
2023-01-09T13:46:49.883Z,6.84
2023-01-09T13:48:51.600Z,6.83
2023-01-09T13:50:53.322Z,6.82
2023-01-09T13:52:55.201Z,6.82
2023-01-09T13:54:56.334Z,6.81
2023-01-09T13:56:57.355Z,6.81
2023-01-09T13:58:59.266Z,6.78
2023-01-09T14:01:01.070Z,6.79
2023-01-09T14:03:02.598Z,6.76
2023-01-09T14:05:04.161Z,6.77
2023-01-09T14:07:05.417Z,6.79
2023-01-09T14:09:06.779Z,6.85
2023-01-09T14:11:08.147Z,6.92
2023-01-09T14:13:09.344Z,7.05
2023-01-09T14:15:10.718Z,7.27
2023-01-09T14:17:11.829Z,7.2
2023-01-09T14:19:12.835Z,7.13
2023-01-09T14:21:14.040Z,7.11
2023-01-09T14:23:31.684Z,7.05
2023-01-09T14:25:17.192Z,7
2023-01-09T14:27:18.259Z,7.03
2023-01-09T14:29:19.434Z,7
2023-01-09T14:31:20.810Z,6.91
2023-01-09T14:33:22.338Z,6.97
2023-01-09T14:35:23.818Z,6.92
2023-01-09T14:37:24.786Z,6.94
2023-01-09T14:39:25.925Z,6.92
2023-01-09T14:41:26.960Z,6.88
2023-01-09T14:43:28.318Z,6.86
2023-01-09T14:45:29.501Z,6.82
2023-01-09T14:47:30.483Z,6.77
2023-01-09T14:49:32.292Z,6.75
2023-01-09T14:51:33.328Z,6.77
2023-01-09T14:53:35.177Z,6.76
2023-01-09T14:55:36.823Z,6.72
2023-01-09T14:57:38.040Z,6.68
2023-01-09T14:59:39.648Z,6.57
2023-01-09T15:01:40.725Z,6.56
2023-01-09T15:03:41.968Z,6.47
2023-01-09T15:05:43.618Z,6.51
2023-01-09T15:07:45.249Z,6.51
2023-01-09T15:09:46.620Z,6.41
2023-01-09T15:11:47.538Z,6.44
2023-01-09T15:13:48.545Z,6.43
2023-01-09T15:15:49.935Z,6.52
2023-01-09T15:17:51.547Z,6.44
2023-01-09T15:19:53.508Z,6.43
2023-01-09T15:21:55.053Z,6.45
2023-01-09T15:23:56.560Z,6.39
2023-01-09T15:25:57.987Z,6.36
2023-01-09T15:27:58.925Z,6.3
2023-01-09T15:32:01.927Z,6.25
2023-01-09T15:34:03.608Z,6.2
2023-01-09T15:36:04.708Z,6.19
2023-01-09T15:38:05.923Z,6.07
2023-01-09T15:40:06.872Z,5.97
2023-01-09T15:42:07.989Z,5.94
2023-01-09T15:44:09.465Z,5.91
2023-01-09T15:46:11.273Z,5.83
2023-01-09T15:48:12.889Z,5.81
2023-01-09T15:50:14.434Z,5.83
2023-01-09T15:52:16.015Z,5.88
2023-01-09T15:54:17.292Z,5.8
2023-01-09T15:56:19.044Z,5.84
2023-01-09T15:58:20.967Z,5.85
2023-01-09T16:00:21.987Z,5.88
2023-01-09T16:02:23.606Z,5.95
2023-01-09T16:04:25.883Z,6
2023-01-09T16:06:26.576Z,5.96
2023-01-09T16:08:28.147Z,6.03
2023-01-09T16:10:29.707Z,6.03
2023-01-09T16:12:30.792Z,6.04
2023-01-09T16:14:32.561Z,6.13
2023-01-09T16:16:33.740Z,6.08
2023-01-09T16:18:34.818Z,6.01
2023-01-09T16:20:36.134Z,6.03
2023-01-09T16:22:37.496Z,6.04
2023-01-09T16:24:38.719Z,6.07
2023-01-09T16:26:40.382Z,6.04
2023-01-09T16:28:41.562Z,6.06
2023-01-09T16:30:43.182Z,6.09
2023-01-09T16:32:44.854Z,6.06
2023-01-09T16:34:46.555Z,6.1
2023-01-09T16:36:47.821Z,6.04
2023-01-09T16:38:48.854Z,6.12
2023-01-09T16:40:49.856Z,6.05
2023-01-09T16:42:51.236Z,6.05
2023-01-09T16:44:52.547Z,6.05
2023-01-09T16:46:53.966Z,6.02
2023-01-09T16:48:55.336Z,6.03
2023-01-09T16:50:56.367Z,6
2023-01-09T16:52:57.969Z,5.89
2023-01-09T16:54:59.430Z,5.92
2023-01-09T16:57:00.623Z,5.91
2023-01-09T16:59:01.660Z,6.01
2023-01-09T17:01:02.850Z,5.96
2023-01-09T17:03:03.732Z,5.96
2023-01-09T17:05:04.897Z,6
2023-01-09T17:07:06.003Z,5.96
2023-01-09T17:09:07.413Z,5.98
2023-01-09T17:11:08.719Z,6
2023-01-09T17:13:10.590Z,5.92
2023-01-09T17:15:12.212Z,5.97
2023-01-09T17:17:13.549Z,5.91
2023-01-09T17:19:15.126Z,5.92
2023-01-09T17:21:17.041Z,5.86
2023-01-09T17:23:18.106Z,5.79
2023-01-09T17:25:19.841Z,5.74
2023-01-09T17:27:21.371Z,5.69
2023-01-09T17:29:23.332Z,5.6
2023-01-09T17:31:24.462Z,5.56
2023-01-09T17:33:26.044Z,5.69
2023-01-09T17:35:27.265Z,5.66
2023-01-09T17:37:28.483Z,5.64
2023-01-09T17:39:29.505Z,5.62
2023-01-09T17:41:31.326Z,5.65
2023-01-09T17:43:33.313Z,5.67
2023-01-09T17:45:34.944Z,5.69
2023-01-09T17:47:36.816Z,5.7
2023-01-09T17:49:38.038Z,5.71
2023-01-09T17:51:39.192Z,5.65
2023-01-09T17:55:42.389Z,5.66
2023-01-09T17:57:44.316Z,5.68
2023-01-09T17:59:45.745Z,5.68
2023-01-09T18:01:47.674Z,5.69
2023-01-09T18:03:49.363Z,5.64
2023-01-09T18:05:50.727Z,5.62
2023-01-09T18:07:51.808Z,5.59
2023-01-09T18:09:53.145Z,5.51
2023-01-09T18:11:54.914Z,5.53
2023-01-09T18:13:56.064Z,5.49
2023-01-09T18:15:57.352Z,5.52
2023-01-09T18:17:59.151Z,5.51
2023-01-09T18:20:01.031Z,5.41
2023-01-09T18:22:02.371Z,5.36
2023-01-09T18:24:03.836Z,5.31
2023-01-09T18:26:05.519Z,5.47
2023-01-09T18:28:07.087Z,5.42
2023-01-09T18:30:08.605Z,5.43
2023-01-09T18:32:09.793Z,5.38
2023-01-09T18:34:11.655Z,5.41
2023-01-09T18:36:13.205Z,5.47
2023-01-09T18:38:14.427Z,5.41
2023-01-09T18:40:15.758Z,5.35
2023-01-09T18:42:17.757Z,5.37
2023-01-09T18:44:19.203Z,5.36
2023-01-09T18:46:20.980Z,5.32
2023-01-09T18:48:22.943Z,5.24
2023-01-09T18:50:24.477Z,5.22
2023-01-09T18:52:25.802Z,5.13
2023-01-09T18:54:26.861Z,5.07
2023-01-09T18:55:10.645Z,5.06
2023-01-09T18:57:12.436Z,5.04
2023-01-09T18:59:14.226Z,5.03
2023-01-09T19:01:16.039Z,5.13
2023-01-09T19:03:17.982Z,5.11
2023-01-09T19:05:19.172Z,5.04
2023-01-09T19:07:20.479Z,5.07
2023-01-09T19:09:22.312Z,5.08
2023-01-09T19:11:23.838Z,5.07
2023-01-09T19:13:25.229Z,5.08
2023-01-09T19:15:27.629Z,5.06
2023-01-09T19:17:27.925Z,5.06
2023-01-09T19:19:29.180Z,5.03
2023-01-09T19:21:30.189Z,5.07
2023-01-09T19:23:31.487Z,5.07
2023-01-09T19:25:32.600Z,5.03
2023-01-09T19:27:33.862Z,5.02
2023-01-09T19:29:36.646Z,5
2023-01-09T19:31:36.347Z,4.99
2023-01-09T19:33:38.087Z,4.99
2023-01-09T19:35:39.071Z,5.04
2023-01-09T19:37:41.055Z,5.02
2023-01-09T19:39:42.463Z,5.02
2023-01-09T19:41:44.277Z,5
2023-01-09T19:43:45.662Z,4.98
2023-01-09T19:45:47.273Z,4.99
2023-01-09T19:47:48.709Z,4.98
2023-01-09T19:49:50.653Z,4.98
2023-01-09T19:51:52.181Z,4.94
2023-01-09T19:53:53.480Z,4.92
2023-01-09T19:55:54.960Z,4.96
2023-01-09T19:57:56.025Z,4.93
2023-01-09T19:59:57.280Z,4.94
2023-01-09T20:01:59.243Z,4.95
2023-01-09T20:04:00.566Z,4.96
2023-01-09T20:06:02.544Z,4.94
2023-01-09T20:08:04.227Z,5
2023-01-09T20:10:05.612Z,5
2023-01-09T20:12:07.570Z,4.98
2023-01-09T20:14:09.471Z,4.99
2023-01-09T20:16:11.380Z,4.98
2023-01-09T20:18:12.760Z,5
2023-01-09T20:20:14.256Z,5.03
2023-01-09T20:22:15.237Z,5.01
2023-01-09T20:24:16.481Z,4.99
2023-01-09T20:26:18.190Z,4.98
2023-01-09T20:28:19.808Z,5.02
2023-01-09T20:30:20.894Z,5
2023-01-09T20:32:22.058Z,4.99
2023-01-09T20:34:23.718Z,4.95
2023-01-09T20:36:25.588Z,4.89
2023-01-09T20:38:27.157Z,4.86
2023-01-09T20:40:29.049Z,4.9
2023-01-09T20:42:30.729Z,4.86
2023-01-09T20:44:31.842Z,4.87
2023-01-09T20:46:33.182Z,4.85
2023-01-09T20:48:34.432Z,4.85
2023-01-09T20:50:36.395Z,4.77
2023-01-09T20:52:37.473Z,4.74
2023-01-09T20:54:39.083Z,4.7
2023-01-09T20:56:40.372Z,4.67
2023-01-09T20:58:41.387Z,4.61
2023-01-09T21:00:43.402Z,4.66
2023-01-09T21:02:44.409Z,4.56
2023-01-09T21:04:46.102Z,4.54
2023-01-09T21:06:49.959Z,4.57
2023-01-09T21:08:48.997Z,4.59
2023-01-09T21:10:50.226Z,4.56
2023-01-09T21:12:52.054Z,4.6
2023-01-09T21:14:53.070Z,4.65
2023-01-09T21:16:55.239Z,4.61
2023-01-09T21:18:56.253Z,4.67
2023-01-09T21:20:57.830Z,4.7
2023-01-09T21:22:59.651Z,4.59
2023-01-09T21:25:01.411Z,4.64
2023-01-09T21:27:02.982Z,4.64
2023-01-09T21:29:04.912Z,4.69
2023-01-09T21:31:06.166Z,4.71
2023-01-09T21:33:08.087Z,4.71
2023-01-09T21:35:10.008Z,4.7
2023-01-09T21:39:12.345Z,4.74
2023-01-09T21:41:13.382Z,4.74
2023-01-09T21:43:15.352Z,4.76
2023-01-09T21:45:16.439Z,4.77
2023-01-09T21:47:17.453Z,4.76
2023-01-09T21:49:18.761Z,4.78
2023-01-09T21:51:20.053Z,4.76
2023-01-09T21:53:21.707Z,4.78
2023-01-09T21:55:23.219Z,4.79
2023-01-09T21:57:24.611Z,4.78
2023-01-09T21:59:26.225Z,4.82
2023-01-09T22:01:27.747Z,4.87
2023-01-09T22:03:29.524Z,4.82
2023-01-09T22:05:31.252Z,4.93
2023-01-09T22:07:32.752Z,4.94
2023-01-09T22:09:34.196Z,5.01
2023-01-09T22:11:35.322Z,4.97
2023-01-09T22:13:36.844Z,4.99
2023-01-09T22:15:38.842Z,5
2023-01-09T22:17:40.262Z,4.95
2023-01-09T22:21:43.415Z,4.95
2023-01-09T22:23:44.826Z,4.98
2023-01-09T22:25:46.485Z,4.97
2023-01-09T22:27:48.330Z,4.94
2023-01-09T22:29:50.285Z,4.9
2023-01-09T22:31:51.599Z,4.93
2023-01-09T22:33:52.627Z,5.02
2023-01-09T22:35:54.015Z,4.97
2023-01-09T22:37:55.251Z,4.94
2023-01-09T22:39:56.877Z,4.92
2023-01-09T22:41:58.467Z,4.94
2023-01-09T22:44:00.237Z,4.94
2023-01-09T22:46:02.060Z,4.97
2023-01-09T22:48:03.506Z,4.85
2023-01-09T22:50:04.985Z,4.91
2023-01-09T22:52:06.106Z,4.92
2023-01-09T22:54:07.197Z,4.86
2023-01-09T22:56:08.391Z,4.8
2023-01-09T22:58:09.515Z,4.81
2023-01-09T23:00:10.832Z,4.81
2023-01-09T23:02:12.420Z,4.84
2023-01-09T23:04:13.576Z,4.81
2023-01-09T23:06:15.486Z,4.8
2023-01-09T23:08:17.452Z,4.79
2023-01-09T23:10:18.515Z,4.81
2023-01-09T23:12:19.617Z,4.82
2023-01-09T23:14:21.369Z,4.86
2023-01-09T23:16:23.253Z,4.88
2023-01-09T23:18:25.033Z,4.95
2023-01-09T23:20:26.247Z,4.98
2023-01-09T23:22:27.227Z,4.97
2023-01-09T23:24:28.772Z,4.95
2023-01-09T23:26:30.232Z,4.94
2023-01-09T23:28:32.124Z,4.94
2023-01-09T23:30:33.957Z,4.99
2023-01-09T23:32:35.146Z,4.96
2023-01-09T23:34:37.142Z,4.89
2023-01-09T23:36:39.130Z,4.92
2023-01-09T23:38:40.803Z,4.89
2023-01-09T23:40:41.992Z,4.88
2023-01-09T23:42:43.569Z,4.91
2023-01-09T23:44:45.235Z,4.92
2023-01-09T23:46:47.047Z,4.87
2023-01-09T23:48:48.821Z,4.83
2023-01-09T23:50:49.914Z,4.82
2023-01-09T23:52:51.410Z,4.85
2023-01-09T23:54:52.857Z,4.84
2023-01-09T23:56:53.879Z,4.84
2023-01-09T23:58:55.534Z,4.84
